Lentokenttä METAR

 

EFHK - Helsinki/Vantaa
Etäisyys sääasemasta: IKO 36km
Päivitetty: 19/10/2017 19:20
Melko selkeää
Melko selkeää
 Tuulen suunta LU
Tuuli: LU 3 m/s
Lämpötila: 4°C
Hyytävyys: 1°C
Kastepiste: 2°C
Kosteus: 87%
Ilmanpaine: 1019 hPa
Pilvisyys: Melko selkeää
Näkyvyys: 10 km
Pilviraja: Melko selkeää 914 m
2017/10/19 16:20 EFHK 191620Z 31006KT 9999 FEW030 04/02 Q1019 NOSIG
EETN - Tallinn, Estonia
Etäisyys sääasemasta: EKA 97km
Päivitetty: 19/10/2017 19:20
Melko selkeää
Melko selkeää
 Tuulen suunta PLU
Tuuli: PLU 4 m/s
Lämpötila: 8°C
Hyytävyys: 6°C
Kastepiste: 3°C
Kosteus: 71%
Ilmanpaine: 1018 hPa
Pilvisyys: Melko selkeää
Näkyvyys: 10 km
Pilviraja: Melko selkeää 762 m
Melko selkeää 1097 m
2017/10/19 16:20 EETN 191620Z 33007KT 9999 FEW025CB SCT036 08/03 Q1018 NOSIG
 
EFTU - Turku
Etäisyys sääasemasta: LLU 119km
Päivitetty: 19/10/2017 19:20
Selkeää
Selkeää
 Tuulen suunta L
Tuuli: L 1 m/s
Lämpötila: 1°C
Kastepiste: 0°C
Kosteus: 93%
Ilmanpaine: 1020 hPa
Yhteenveto: Selkeää
Näkyvyys: Suurempi kuin 10 km
2017/10/19 16:20 EFTU 191620Z AUTO 28001KT CAVOK 01/00 Q1020
EFLP - Lappeenranta
Etäisyys sääasemasta: IKO 227km
Päivitetty: 19/10/2017 19:20
Pilvistä
Pilvistä
 Tuulen suunta LU
Tuuli: LU 3 m/s
Lämpötila: 5°C
Hyytävyys: 2°C
Kastepiste: 2°C
Kosteus: 81%
Ilmanpaine: 1017 hPa
Pilvisyys: Pilvistä
Näkyvyys: 10 km
Pilviraja: Melko selkeää 518 m
Pilvistä 1646 m
2017/10/19 16:20 EFLP 191620Z AUTO 32006KT 280V350 9999 FEW017 OVC054 05/02 Q1017
 
EFJY - Jyvaskylä
Etäisyys sääasemasta: PKO 253km
Päivitetty: 19/10/2017 19:20
Pilvistä
Pilvistä
 Tuulen suunta LU
Tuuli: LU 2 m/s
Lämpötila: 3°C
Hyytävyys: 1°C
Kastepiste: 1°C
Kosteus: 87%
Ilmanpaine: 1017 hPa
Pilvisyys: Pilvistä
Näkyvyys: 10 km
Pilviraja: Pilvistä 792 m
2017/10/19 16:20 EFJY 191620Z AUTO 31004KT 9999 OVC026 03/01 Q1017
EFSA - Savonlinna
Etäisyys sääasemasta: KO 313km
Päivitetty: 19/10/2017 19:20
Pilvistä
Pilvistä
 Tuulen suunta LLU
Tuuli: LLU 2 m/s
Lämpötila: 4°C
Kastepiste: 2°C
Kosteus: 87%
Ilmanpaine: 1016 hPa
Pilvisyys: Pilvistä
Näkyvyys: 10 km
Pilviraja: Melko selkeää 427 m
Melko selkeää 792 m
Pilvistä 1707 m
2017/10/19 16:20 EFSA 191620Z AUTO 30003KT 9999 FEW014 SCT026 OVC056 04/02 Q1016
 
ESSA - Stockholm/Arlanda, Sweden
Etäisyys sääasemasta: L 363km
Päivitetty: 19/10/2017 19:20
Selkeää
Selkeää
 Tuulen suunta PLU
Tuuli: PLU 1 m/s
Lämpötila: 3°C
Kastepiste: 3°C
Kosteus: 100%
Ilmanpaine: 1021 hPa
Yhteenveto: Selkeää
Näkyvyys: Suurempi kuin 10 km
2017/10/19 16:20 ESSA 191620Z 33001KT CAVOK 03/03 Q1021 NOSIG
ESGG - Göteborg, Sweden
Etäisyys sääasemasta: LO 900km
Päivitetty: 19/10/2017 19:20
Melko pilvistä
Melko pilvistä
 Tuulen suunta IKA
Tuuli: IKA 4 m/s
Lämpötila: 9°C
Hyytävyys: 7°C
Kastepiste: 3°C
Kosteus: 66%
Ilmanpaine: 1018 hPa
Pilvisyys: Melko pilvistä
Näkyvyys: 10 km
Pilviraja: Melko pilvistä 914 m
2017/10/19 16:20 ESGG 191620Z 12008KT 9999 BKN030 09/03 Q1018
 
ENGM - Oslo, Norway
Etäisyys sääasemasta: L 950km
Päivitetty: 19/10/2017 19:20
Selkeää
Selkeää
 Tuulen suunta P
Tuuli: P 1 m/s
Lämpötila: 4°C
Kastepiste: 1°C
Kosteus: 81%
Ilmanpaine: 1019 hPa
Yhteenveto: Selkeää
Näkyvyys: Suurempi kuin 10 km
2017/10/19 16:20 ENGM 191620Z 35002KT CAVOK 04/01 Q1019 NOSIG